Poolville, TX (76487)

4:11 AM CST on February 27, 2017 (GMT -0600)
Springtown | | Change Station

Elev 968 ft 33.03 °N, 97.75 °W | Updated 6 seconds ago

Overcast
Overcast
61.9 °F
Feels Like 61.9 °F
N
0.0
Wind Variable Wind from ESE
Gusts 0.0 mph

Today
High -- | Low -- °F
--% Chance of Precip.
Yesterday
High -- | Low -- °F
Precip. -- in
Pressure 29.93 in
Visibility 5.0 miles
Clouds Overcast 500 ft
Dew Point 61 °F
Humidity 97%
Rainfall 0.00 in
Snow Depth Not available.
7:01 AM 6:27 PM
New Moon, 1% visible
METAR KXBP 270955Z AUTO 19005KT 5SM BR OVC005 16/16 A2993 RMK AO2 T01580158
Pressure 29.93 in
Visibility 5.0 miles
Clouds Overcast 500 ft
Dew Point 61 °F
Humidity 97%
Rainfall 0.00 in
Snow Depth Not available.
7:01 AM 6:27 PM
New Moon, 1% visible
METAR KXBP 270955Z AUTO 19005KT 5SM BR OVC005 16/16 A2993 RMK AO2 T01580158

Get Your Daily Forecast Email!

Thanks for signing up!

Be on the lookout for a verification email in your inbox.

You'll start receiving the daily forecast at 8 AM.

×

10-Day Weather Forecast

Almanac

Astronomy

Feb. 27, 2017 Rise Set
Actual Time
Civil Twilight
Nautical Twilight
Astronomical Twilight
Moon
Length of Visible Light
Length of Day
Tomorrow will be .
, % of the Moon is Illuminated

Today's Extremes

State Highs State Lows

Community

WunderPhotos

Upload Photos

1,962,540 photos uploaded!

WunderBlog® & News

Nearby

Air Quality

  Air Quality AQ Index Pollutant
Not available.

Snow Depth

Station Depth Elevation

Earthquake Activity

City Distance Mag. Time & Date
Minimum magnitude displayed is 2.5.

Coastal Water Temperatures

Place Temperature

Stations

Nearby Weather Stations

Station Location Temp. Windchill Dew Point Humidity Wind Precip. Elev Updated Type
                   

Watches & Warnings

There are currently no watches in effect.